Time;durP1;ratioP1;P1;durP2;ratioP2;P2;SDS_P1;SDS_P2;PMS_P1;PMS_P2;Temp;Humidity;BMP_temperature;BMP_pressure;BME280_temperature;BME280_humidity;BME280_pressure;Samples;Min_cycle;Max_cycle;Signal;HPM_P1;HPM_P2
2022/04/22 00:00:33;;;;;;;0.10;0.10;;;8.30;1.00;12.80;88045.00;;;;5017503;28;20203;-71
2022/04/22 00:03:02;;;;;;;0.10;0.10;;;8.30;1.00;12.80;88045.00;;;;5032229;28;20592;-71
2022/04/22 00:05:30;;;;;;;0.00;0.00;;;8.30;1.00;12.80;88045.00;;;;5031021;28;20215;-71
2022/04/22 00:07:58;;;;;;;0.10;0.10;;;8.20;1.00;12.80;88045.00;;;;5031416;28;20199;-72
2022/04/22 00:10:27;;;;;;;0.10;0.10;;;8.30;1.00;12.80;88045.00;;;;5027040;28;20239;-72
2022/04/22 00:12:55;;;;;;;0.08;0.08;;;8.30;1.00;12.80;88045.00;;;;5015364;28;20259;-72
2022/04/22 00:15:23;;;;;;;0.10;0.10;;;8.40;1.00;12.80;88045.00;;;;5019302;28;20226;-72
2022/04/22 00:17:51;;;;;;;0.10;0.10;;;8.40;1.00;12.80;88045.00;;;;5023017;28;20282;-72
2022/04/22 00:20:20;;;;;;;0.10;0.10;;;8.40;1.00;12.80;88045.00;;;;5031289;28;20605;-72
2022/04/22 00:22:48;;;;;;;0.05;0.05;;;8.50;1.00;12.80;88045.00;;;;5031151;28;20203;-72
2022/04/22 00:25:16;;;;;;;0.10;0.10;;;8.40;1.00;12.80;88045.00;;;;5031250;28;20281;-72
2022/04/22 00:27:45;;;;;;;0.10;0.10;;;8.50;1.00;12.80;88045.00;;;;5013886;28;20192;-72
2022/04/22 00:30:13;;;;;;;0.10;0.10;;;8.40;1.00;12.80;88045.00;;;;5021251;28;20184;-71
2022/04/22 00:32:42;;;;;;;0.10;0.10;;;8.40;1.00;12.80;88045.00;;;;5029519;28;20285;-72
2022/04/22 00:35:10;;;;;;;0.10;0.10;;;8.50;1.00;12.80;88045.00;;;;5024825;28;20704;-72
2022/04/22 00:37:38;;;;;;;0.10;0.10;;;8.50;1.00;12.80;88045.00;;;;5034294;28;20225;-72
2022/04/22 00:40:07;;;;;;;0.10;0.10;;;8.60;1.00;12.80;88045.00;;;;5028195;28;20196;-71
2022/04/22 00:42:36;;;;;;;0.10;0.10;;;8.60;1.00;12.80;88045.00;;;;5030481;28;20214;-72
2022/04/22 00:45:09;;;;;;;0.10;0.10;;;8.70;1.00;12.80;88045.00;;;;5033771;28;20234;-72
2022/04/22 00:47:38;;;;;;;0.10;0.10;;;8.70;1.00;12.80;88045.00;;;;5034543;28;20206;-72
2022/04/22 00:50:07;;;;;;;0.00;0.00;;;8.70;1.00;12.80;88045.00;;;;5016926;28;20196;-72
2022/04/22 00:52:35;;;;;;;0.10;0.10;;;8.70;1.00;12.80;88045.00;;;;5033170;28;20199;-72
2022/04/22 00:55:06;;;;;;;0.10;0.10;;;8.60;1.00;12.80;88045.00;;;;5033432;28;20580;-72
2022/04/22 00:57:34;;;;;;;0.05;0.05;;;8.60;1.00;12.80;88045.00;;;;5031210;28;20268;-72
2022/04/22 01:00:07;;;;;;;0.10;0.10;;;8.60;1.00;12.80;88045.00;;;;5018697;28;20195;-72
2022/04/22 01:02:35;;;;;;;0.10;0.10;;;8.60;1.00;12.80;88045.00;;;;5028904;28;20196;-71
2022/04/22 01:10:31;;;;;;;0.10;0.10;;;8.60;1.00;12.80;88045.00;;;;5032615;28;20197;-71
2022/04/22 01:12:59;;;;;;;0.10;0.10;;;8.60;1.00;12.80;88045.00;;;;5032526;28;20221;-72
2022/04/22 01:15:29;;;;;;;0.10;0.10;;;8.60;1.00;12.80;88045.00;;;;5024466;28;20219;-72
2022/04/22 01:17:57;;;;;;;0.10;0.10;;;8.60;1.00;12.80;88045.00;;;;5033874;28;20237;-72
2022/04/22 01:20:25;;;;;;;0.10;0.10;;;8.60;1.00;12.80;88045.00;;;;5032437;28;20731;-72
2022/04/22 01:22:54;;;;;;;0.10;0.10;;;8.50;1.00;12.80;88045.00;;;;5033615;28;20206;-72
2022/04/22 01:25:22;;;;;;;0.00;0.00;;;8.50;1.00;12.80;88045.00;;;;5031683;28;20222;-72
2022/04/22 01:27:52;;;;;;;0.10;0.10;;;8.50;1.00;12.80;88045.00;;;;5041167;28;20242;-71
2022/04/22 01:30:21;;;;;;;0.10;0.10;;;8.50;1.00;12.80;88045.00;;;;5016327;28;20242;-72
2022/04/22 01:32:51;;;;;;;0.00;0.00;;;8.50;1.00;12.80;88045.00;;;;5033738;28;20242;-72
2022/04/22 01:35:19;;;;;;;0.10;0.10;;;8.50;1.00;12.80;88045.00;;;;5032190;28;20711;-72
2022/04/22 01:37:48;;;;;;;0.10;0.10;;;8.50;1.00;12.80;88045.00;;;;5018587;28;20207;-72
2022/04/22 01:40:18;;;;;;;0.10;0.10;;;8.50;1.00;12.80;88045.00;;;;5030237;28;20549;-73
2022/04/22 01:42:46;;;;;;;0.10;0.10;;;8.40;1.00;12.80;88045.00;;;;5027927;28;20254;-73
2022/04/22 01:45:14;;;;;;;0.10;0.10;;;8.40;1.00;12.80;88045.00;;;;5022357;28;20219;-72
2022/04/22 01:47:43;;;;;;;0.05;0.05;;;8.40;1.00;12.80;88045.00;;;;5033188;28;20199;-73
2022/04/22 01:50:11;;;;;;;0.10;0.10;;;8.40;1.00;12.80;88045.00;;;;5033070;28;20191;-73
2022/04/22 01:52:41;;;;;;;0.10;0.10;;;8.40;1.00;12.80;88045.00;;;;5018826;28;20204;-72
2022/04/22 01:55:10;;;;;;;0.10;0.10;;;8.40;1.00;12.80;88045.00;;;;5020630;28;20272;-72
2022/04/22 01:57:39;;;;;;;0.10;0.10;;;8.40;1.00;12.80;88045.00;;;;5031877;28;20220;-72
2022/04/22 02:00:10;;;;;;;0.10;0.10;;;8.40;1.00;12.80;88045.00;;;;5023648;28;20573;-72
2022/04/22 02:02:38;;;;;;;0.10;0.10;;;8.40;1.00;12.80;88045.00;;;;5016169;28;20232;-72
2022/04/22 02:05:07;;;;;;;0.10;0.10;;;8.40;1.00;12.80;88045.00;;;;5019510;28;20218;-72
2022/04/22 02:07:35;;;;;;;0.10;0.10;;;8.40;1.00;12.80;88045.00;;;;5011683;28;20653;-73
2022/04/22 02:10:03;;;;;;;0.10;0.10;;;8.30;1.00;12.80;88045.00;;;;5015912;28;20666;-72
2022/04/22 02:12:31;;;;;;;0.10;0.10;;;8.40;1.00;12.80;88045.00;;;;5032785;28;20257;-73
2022/04/22 02:15:01;;;;;;;0.10;0.10;;;8.30;1.00;12.80;88045.00;;;;5032078;28;20211;-73
2022/04/22 02:17:29;;;;;;;0.10;0.10;;;8.30;1.00;12.80;88045.00;;;;5032768;28;20206;-73
2022/04/22 02:19:57;;;;;;;0.10;0.10;;;8.30;1.00;12.80;88045.00;;;;5032797;28;20195;-72
2022/04/22 02:22:25;;;;;;;0.10;0.10;;;8.40;1.00;12.80;88045.00;;;;5031445;28;20249;-73
2022/04/22 02:24:53;;;;;;;0.10;0.10;;;8.40;1.00;12.80;88045.00;;;;5032625;28;20218;-72
2022/04/22 02:30:09;;;;;;;0.10;0.10;;;8.30;1.00;12.80;88045.00;;;;5030665;28;20617;-72
2022/04/22 02:32:37;;;;;;;0.10;0.10;;;8.30;1.00;12.80;88045.00;;;;5014993;28;20222;-72
2022/04/22 02:35:07;;;;;;;0.00;0.00;;;8.40;1.00;12.80;88045.00;;;;5014527;28;20216;-73
2022/04/22 02:37:35;;;;;;;0.10;0.10;;;8.40;1.00;12.80;88045.00;;;;5014751;28;20262;-72
2022/04/22 02:40:03;;;;;;;0.08;0.08;;;8.30;1.00;12.80;88045.00;;;;5030069;28;20195;-72
2022/04/22 02:45:27;;;;;;;0.00;0.00;;;8.40;1.00;12.80;88045.00;;;;5035259;28;20231;-72
2022/04/22 02:47:56;;;;;;;0.10;0.10;;;8.40;1.00;12.80;88045.00;;;;5036540;28;20191;-73
2022/04/22 02:50:24;;;;;;;0.00;0.00;;;8.40;1.00;12.80;88045.00;;;;5034976;28;20195;-72
2022/04/22 02:52:52;;;;;;;0.10;0.10;;;8.40;1.00;12.80;88045.00;;;;5036694;28;20194;-72
2022/04/22 02:55:20;;;;;;;0.10;0.10;;;8.30;1.00;12.80;88045.00;;;;5038034;28;20248;-73
2022/04/22 02:57:49;;;;;;;0.10;0.10;;;8.30;1.00;12.80;88045.00;;;;5036122;28;20191;-73
2022/04/22 03:00:18;;;;;;;0.10;0.10;;;8.30;1.00;12.80;88045.00;;;;5035267;28;20699;-73
2022/04/22 03:02:46;;;;;;;0.10;0.10;;;8.30;1.00;12.80;88045.00;;;;5015650;28;20199;-72
2022/04/22 03:05:14;;;;;;;0.10;0.10;;;8.30;1.00;12.80;88045.00;;;;5024713;28;20775;-72
2022/04/22 03:07:43;;;;;;;0.10;0.10;;;8.30;1.00;12.80;88045.00;;;;5020695;28;20199;-71
2022/04/22 03:10:11;;;;;;;0.10;0.10;;;8.30;1.00;12.80;88045.00;;;;5028342;28;20203;-72
2022/04/22 03:12:40;;;;;;;0.10;0.10;;;8.30;1.00;12.80;88045.00;;;;5018381;28;20205;-73
2022/04/22 03:15:09;;;;;;;0.10;0.10;;;8.20;1.00;12.80;88045.00;;;;5028237;28;20227;-74
2022/04/22 03:17:39;;;;;;;0.03;0.03;;;8.20;1.00;12.80;88045.00;;;;5031368;28;20214;-73
2022/04/22 03:20:08;;;;;;;0.10;0.10;;;8.20;1.00;12.80;88045.00;;;;5021681;28;20202;-73
2022/04/22 03:22:36;;;;;;;0.10;0.10;;;8.20;1.00;12.80;88045.00;;;;5024050;28;20203;-74
2022/04/22 03:25:05;;;;;;;0.10;0.10;;;8.20;1.00;12.80;88045.00;;;;5031390;28;20219;-73
2022/04/22 03:27:33;;;;;;;0.10;0.10;;;8.10;1.00;12.80;88045.00;;;;5031463;28;20222;-73
2022/04/22 03:30:02;;;;;;;0.10;0.10;;;8.10;1.00;12.80;88045.00;;;;5026318;28;20191;-73
2022/04/22 03:32:30;;;;;;;0.10;0.10;;;8.10;1.00;12.80;88045.00;;;;5025935;28;20258;-73
2022/04/22 03:35:00;;;;;;;0.10;0.10;;;8.10;1.00;12.80;88045.00;;;;5028337;28;20233;-75
2022/04/22 03:37:28;;;;;;;0.10;0.10;;;8.10;1.00;12.80;88045.00;;;;5024255;28;20214;-73
2022/04/22 03:39:56;;;;;;;0.10;0.10;;;8.00;1.00;12.80;88045.00;;;;5031287;28;20256;-73
2022/04/22 03:42:25;;;;;;;0.10;0.10;;;8.00;1.00;12.80;88045.00;;;;5031425;28;20191;-73
2022/04/22 03:44:53;;;;;;;0.10;0.10;;;8.00;1.00;12.80;88045.00;;;;5023467;28;20216;-73
2022/04/22 03:47:21;;;;;;;0.10;0.10;;;8.00;1.00;12.80;88045.00;;;;5015325;28;20208;-72
2022/04/22 03:49:49;;;;;;;0.10;0.10;;;8.00;1.00;12.80;88045.00;;;;5026051;28;20743;-72
2022/04/22 03:52:18;;;;;;;0.10;0.10;;;8.00;1.00;12.80;88045.00;;;;5030041;28;20195;-72
2022/04/22 03:54:47;;;;;;;0.10;0.10;;;8.00;1.00;12.80;88045.00;;;;5015373;28;20295;-72
2022/04/22 04:00:00;;;;;;;0.10;0.10;;;7.80;1.00;12.80;88045.00;;;;5030000;28;20234;-72
2022/04/22 04:02:31;;;;;;;0.10;0.10;;;7.80;1.00;12.80;88045.00;;;;5019675;28;20211;-72
2022/04/22 04:04:59;;;;;;;0.10;0.10;;;7.80;1.00;12.80;88045.00;;;;5022528;28;20220;-72
2022/04/22 04:07:28;;;;;;;0.10;0.10;;;7.90;1.00;12.80;88045.00;;;;5026790;28;20222;-72
2022/04/22 04:18:11;;;;;;;0.10;0.10;;;7.70;1.00;12.80;88045.00;;;;5019262;28;20199;-72
2022/04/22 04:23:22;;;;;;;0.10;0.10;;;7.80;1.00;12.80;88045.00;;;;5008902;28;20210;-72
2022/04/22 04:25:51;;;;;;;0.10;0.10;;;7.80;1.00;12.80;88045.00;;;;5014933;28;20232;-73
2022/04/22 04:28:19;;;;;;;0.10;0.10;;;7.80;1.00;12.80;88045.00;;;;5030589;28;20195;-73
2022/04/22 04:30:47;;;;;;;0.10;0.10;;;7.80;1.00;12.80;88045.00;;;;5032633;28;20191;-72
2022/04/22 04:33:15;;;;;;;0.10;0.10;;;7.80;1.00;12.80;88045.00;;;;5033717;28;20203;-72
2022/04/22 04:35:46;;;;;;;0.10;0.10;;;7.80;1.00;12.80;88045.00;;;;5035031;28;20195;-71
2022/04/22 04:38:15;;;;;;;0.10;0.10;;;7.80;1.00;12.80;88045.00;;;;5015112;28;20279;-71
2022/04/22 04:40:45;;;;;;;0.05;0.05;;;7.90;1.00;12.80;88045.00;;;;5014848;28;20188;-71
2022/04/22 04:43:13;;;;;;;0.10;0.10;;;7.90;1.00;12.80;88045.00;;;;5014640;28;20202;-71
2022/04/22 04:45:41;;;;;;;0.10;0.10;;;7.90;1.00;12.80;88045.00;;;;5014594;28;20191;-72
2022/04/22 04:48:09;;;;;;;0.10;0.10;;;7.80;1.00;12.80;88045.00;;;;5016070;28;20199;-71
2022/04/22 04:50:37;;;;;;;0.10;0.10;;;7.90;1.00;12.80;88045.00;;;;5033669;28;20253;-71
2022/04/22 04:53:05;;;;;;;0.10;0.10;;;7.80;1.00;12.80;88045.00;;;;5032656;28;20195;-71
2022/04/22 04:55:34;;;;;;;0.10;0.10;;;7.80;1.00;12.80;88045.00;;;;5034277;28;20198;-71
2022/04/22 04:58:04;;;;;;;0.10;0.10;;;7.90;1.00;12.80;88045.00;;;;5034171;28;20230;-72
2022/04/22 05:00:32;;;;;;;0.03;0.03;;;7.90;1.00;12.80;88045.00;;;;5032553;28;20585;-72
2022/04/22 05:03:00;;;;;;;0.10;0.10;;;7.90;1.00;12.80;88045.00;;;;5032278;28;20566;-71
2022/04/22 05:05:30;;;;;;;0.10;0.10;;;7.90;1.00;12.80;88045.00;;;;5023650;28;20219;-72
2022/04/22 05:08:01;;;;;;;0.10;0.10;;;7.90;1.00;12.80;88045.00;;;;5034234;28;20226;-72
2022/04/22 05:10:32;;;;;;;0.08;0.08;;;8.00;1.00;12.80;88045.00;;;;5025906;28;20202;-72
2022/04/22 05:13:01;;;;;;;0.10;0.10;;;8.00;1.00;12.80;88045.00;;;;5014138;28;20554;-72
2022/04/22 05:15:32;;;;;;;0.08;0.08;;;8.00;1.00;12.80;88045.00;;;;5023039;28;20218;-71
2022/04/22 05:18:02;;;;;;;0.10;0.10;;;8.10;1.00;12.80;88045.00;;;;5033139;28;20703;-72
2022/04/22 05:20:32;;;;;;;0.10;0.10;;;8.00;1.00;12.80;88045.00;;;;5031852;28;20202;-71
2022/04/22 05:23:01;;;;;;;0.10;0.10;;;8.00;1.00;12.80;88045.00;;;;5033502;28;20199;-70
2022/04/22 05:25:29;;;;;;;0.10;0.10;;;8.10;1.00;12.80;88045.00;;;;5032384;28;20292;-73
2022/04/22 05:27:57;;;;;;;0.05;0.05;;;8.00;1.00;12.80;88045.00;;;;5032314;28;20237;-72
2022/04/22 05:33:12;;;;;;;0.10;0.10;;;8.00;1.00;12.80;88045.00;;;;5013859;28;20191;-71
2022/04/22 05:35:40;;;;;;;0.10;0.10;;;8.00;1.00;12.80;88045.00;;;;5013527;28;20198;-71
2022/04/22 05:38:08;;;;;;;0.10;0.10;;;7.90;1.00;12.80;88045.00;;;;5028830;28;20227;-71
2022/04/22 05:40:38;;;;;;;0.10;0.10;;;7.90;1.00;12.80;88045.00;;;;5013521;28;20199;-71
2022/04/22 05:43:08;;;;;;;0.10;0.10;;;8.00;1.00;12.80;88045.00;;;;5013884;28;20203;-72
2022/04/22 05:45:38;;;;;;;0.10;0.10;;;8.00;1.00;12.80;88045.00;;;;5013460;28;20188;-72
2022/04/22 05:48:07;;;;;;;0.08;0.08;;;8.00;1.00;12.80;88045.00;;;;5013980;28;20196;-72
2022/04/22 05:50:37;;;;;;;0.03;0.03;;;8.00;1.00;12.80;88045.00;;;;5013628;28;20207;-72
2022/04/22 05:53:05;;;;;;;0.10;0.10;;;8.00;1.00;12.80;88045.00;;;;5013731;28;20780;-72
2022/04/22 05:55:33;;;;;;;0.10;0.10;;;8.10;1.00;12.80;88045.00;;;;5013111;28;20274;-72
2022/04/22 05:58:02;;;;;;;0.10;0.10;;;8.10;1.00;12.80;88045.00;;;;5013155;28;20224;-72
2022/04/22 06:00:32;;;;;;;0.10;0.10;;;8.20;1.00;12.80;88045.00;;;;5013180;28;20593;-71
2022/04/22 06:03:00;;;;;;;0.10;0.10;;;8.30;99.90;12.80;88045.00;;;;5013400;28;20696;-72
2022/04/22 06:05:29;;;;;;;0.00;0.00;;;8.30;99.90;12.80;88045.00;;;;5012869;28;20521;-71
2022/04/22 06:10:44;;;;;;;0.10;0.10;;;8.20;1.00;12.80;88045.00;;;;5013025;28;20196;-71
2022/04/22 06:13:12;;;;;;;0.10;0.10;;;8.20;1.00;12.80;88045.00;;;;5028261;28;20765;-72
2022/04/22 06:15:40;;;;;;;0.10;0.10;;;8.20;1.00;12.80;88045.00;;;;5012983;28;20219;-72
2022/04/22 06:18:08;;;;;;;0.10;0.10;;;8.20;1.00;12.80;88045.00;;;;5012877;28;20586;-72
2022/04/22 06:20:36;;;;;;;0.10;0.10;;;8.20;1.00;12.80;88045.00;;;;5012992;28;20215;-72
2022/04/22 06:23:06;;;;;;;0.10;0.10;;;8.30;1.00;12.80;88045.00;;;;5013082;28;20203;-72
2022/04/22 06:25:34;;;;;;;0.00;0.00;;;8.40;1.00;12.80;88045.00;;;;5012867;28;20674;-72
2022/04/22 06:28:02;;;;;;;0.10;0.10;;;8.50;99.90;12.80;88045.00;;;;5013611;28;20247;-72
2022/04/22 06:30:30;;;;;;;0.10;0.10;;;8.50;99.90;12.80;88045.00;;;;5013004;28;20203;-72
2022/04/22 06:33:03;;;;;;;0.10;0.10;;;8.60;99.90;12.80;88045.00;;;;5012727;28;20219;-71
2022/04/22 06:35:32;;;;;;;0.10;0.10;;;8.70;99.90;12.80;88045.00;;;;5014401;28;20239;-71
2022/04/22 06:38:01;;;;;;;0.10;0.10;;;8.70;99.90;12.80;88045.00;;;;5014024;28;20775;-69
2022/04/22 06:46:03;;;;;;;0.10;0.10;;;8.80;99.90;12.80;88045.00;;;;5012490;28;20207;-71
2022/04/22 06:48:34;;;;;;;0.10;0.10;;;8.80;99.90;12.80;88045.00;;;;5012755;28;20199;-71
2022/04/22 06:51:12;;;;;;;0.10;0.10;;;8.80;99.90;12.80;88045.00;;;;5012682;28;20641;-71
2022/04/22 06:53:42;;;;;;;0.10;0.10;;;8.90;99.90;12.80;88045.00;;;;5014116;28;20215;-71
2022/04/22 06:56:13;;;;;;;0.10;0.10;;;9.00;99.90;12.80;88045.00;;;;5014783;28;20211;-72
2022/04/22 06:58:42;;;;;;;0.10;0.10;;;9.10;93.70;12.80;88045.00;;;;5016020;28;20307;-72
2022/04/22 07:01:11;;;;;;;0.10;0.10;;;9.10;99.90;12.80;88045.00;;;;5015832;28;20196;-72
2022/04/22 07:04:00;;;;;;;0.10;0.10;;;9.10;41.10;12.80;88045.00;;;;5016297;28;20693;-71
2022/04/22 07:06:29;;;;;;;0.10;0.10;;;9.10;52.90;12.80;88045.00;;;;5015645;28;20534;-71
2022/04/22 07:08:58;;;;;;;0.10;0.10;;;9.20;1.00;12.80;88045.00;;;;5015875;28;20203;-71
2022/04/22 07:11:29;;;;;;;0.10;0.10;;;9.20;1.00;12.80;88045.00;;;;5014622;28;20203;-71
2022/04/22 07:14:00;;;;;;;0.10;0.10;;;9.20;1.00;12.80;88045.00;;;;5014768;28;20208;-72
2022/04/22 07:16:28;;;;;;;0.10;0.10;;;9.20;1.00;12.80;88045.00;;;;5015398;28;20194;-71
2022/04/22 07:18:59;;;;;;;0.10;0.10;;;9.20;1.00;12.80;88045.00;;;;5015801;28;20224;-71
2022/04/22 07:21:29;;;;;;;0.10;0.10;;;9.20;1.00;12.80;88045.00;;;;5015572;28;20234;-71
2022/04/22 07:23:59;;;;;;;0.10;0.10;;;9.20;1.00;12.80;88045.00;;;;5015259;28;20219;-71
2022/04/22 07:26:28;;;;;;;0.10;0.10;;;9.20;1.00;12.80;88045.00;;;;5014922;28;20238;-71
2022/04/22 07:28:59;;;;;;;0.10;0.10;;;9.20;1.00;12.80;88045.00;;;;5012923;28;20215;-71
2022/04/22 07:31:32;;;;;;;0.08;0.08;;;9.20;1.00;12.80;88045.00;;;;5012198;28;20200;-71
2022/04/22 07:34:00;;;;;;;0.10;0.10;;;9.20;1.00;12.80;88045.00;;;;5012023;28;20286;-71
2022/04/22 07:36:29;;;;;;;0.10;0.10;;;9.20;1.00;12.80;88045.00;;;;5011883;28;20258;-72
2022/04/22 07:39:00;;;;;;;0.10;0.10;;;9.30;1.00;12.80;88045.00;;;;5012214;28;20223;-71
2022/04/22 07:41:36;;;;;;;0.10;0.10;;;9.40;1.00;12.80;88045.00;;;;5012626;28;20223;-72
2022/04/22 07:46:59;;;;;;;0.10;0.10;;;9.40;1.00;12.80;88045.00;;;;5015492;28;20665;-72
2022/04/22 07:49:28;;;;;;;0.10;0.10;;;9.50;1.00;12.80;88045.00;;;;5015627;28;20195;-71
2022/04/22 07:51:57;;;;;;;0.10;0.10;;;9.50;1.00;12.80;88045.00;;;;5015632;28;20187;-72
2022/04/22 07:54:28;;;;;;;0.10;0.10;;;9.60;1.00;12.80;88045.00;;;;5015517;28;20241;-72
2022/04/22 07:56:58;;;;;;;0.10;0.10;;;9.60;1.00;12.80;88045.00;;;;5015412;28;20192;-72
2022/04/22 07:59:28;;;;;;;0.10;0.10;;;9.70;1.00;12.80;88045.00;;;;5017287;28;20219;-72
2022/04/22 08:01:58;;;;;;;0.10;0.10;;;9.70;1.00;12.80;88045.00;;;;5017722;28;20661;-72
2022/04/22 08:04:27;;;;;;;0.10;0.10;;;9.70;1.00;12.80;88045.00;;;;5017649;28;20214;-72
2022/04/22 08:06:55;;;;;;;0.10;0.10;;;9.90;1.00;12.80;88045.00;;;;5017086;28;20192;-72
2022/04/22 08:09:45;;;;;;;0.10;0.10;;;9.90;1.00;12.80;88045.00;;;;5017352;28;20689;-72
2022/04/22 08:12:16;;;;;;;0.10;0.10;;;10.00;99.90;12.80;88045.00;;;;5019736;28;20199;-72
2022/04/22 08:14:44;;;;;;;0.10;0.10;;;10.10;99.90;12.80;88045.00;;;;5028755;28;20307;-72
2022/04/22 08:17:12;;;;;;;0.10;0.10;;;10.20;99.90;12.80;88045.00;;;;5016982;28;20604;-72
2022/04/22 08:19:43;;;;;;;0.10;0.10;;;10.20;99.90;12.80;88045.00;;;;5033696;28;20223;-72
2022/04/22 08:22:11;;;;;;;0.10;0.10;;;10.20;99.90;12.80;88045.00;;;;5034951;28;20240;-72
2022/04/22 08:24:40;;;;;;;0.10;0.10;;;10.30;99.90;12.80;88045.00;;;;5032115;28;20215;-72
2022/04/22 08:27:08;;;;;;;0.10;0.10;;;10.40;99.90;12.80;88045.00;;;;5014618;28;20654;-72
2022/04/22 08:29:38;;;;;;;0.10;0.10;;;10.50;99.90;12.80;88045.00;;;;5014987;28;20219;-72
2022/04/22 08:32:07;;;;;;;0.10;0.10;;;10.60;99.90;12.80;88045.00;;;;5015162;28;20688;-72
2022/04/22 08:34:35;;;;;;;0.10;0.10;;;10.70;99.90;12.80;88045.00;;;;5014797;28;20238;-72
2022/04/22 08:37:04;;;;;;;0.10;0.10;;;10.70;99.90;12.80;88045.00;;;;5014690;28;20200;-72
2022/04/22 08:39:32;;;;;;;0.10;0.10;;;10.80;99.90;12.80;88045.00;;;;5014996;28;20772;-72
2022/04/22 08:42:02;;;;;;;0.00;0.00;;;10.80;99.90;12.80;88045.00;;;;5014437;28;20203;-72
2022/04/22 08:44:53;;;;;;;0.00;0.00;;;10.90;99.90;12.80;88045.00;;;;5014730;28;20215;-72
2022/04/22 08:50:13;;;;;;;0.10;0.10;;;10.90;99.90;12.80;88045.00;;;;5015444;28;20200;-72
2022/04/22 08:52:43;;;;;;;0.10;0.10;;;11.10;99.90;12.80;88045.00;;;;5014757;28;20219;-71
2022/04/22 08:55:13;;;;;;;0.05;0.05;;;11.10;99.90;12.80;88045.00;;;;5014190;28;20216;-71
2022/04/22 08:57:43;;;;;;;0.10;0.10;;;11.20;99.90;12.80;88045.00;;;;5013995;28;20200;-71
2022/04/22 09:00:16;;;;;;;0.10;0.10;;;11.20;1.00;12.80;88045.00;;;;5014517;28;20215;-72
2022/04/22 09:02:44;;;;;;;0.10;0.10;;;11.30;1.00;12.80;88045.00;;;;5014834;28;20529;-71
2022/04/22 09:05:13;;;;;;;0.10;0.10;;;11.40;1.00;12.80;88045.00;;;;5014549;28;20685;-71
2022/04/22 09:07:43;;;;;;;0.00;0.00;;;11.40;1.00;12.80;88045.00;;;;5013980;28;20523;-72
2022/04/22 09:10:12;;;;;;;0.10;0.10;;;11.50;1.00;12.80;88045.00;;;;5014423;28;20243;-71
2022/04/22 09:12:50;;;;;;;0.10;0.10;;;11.60;1.00;12.80;88045.00;;;;5014099;28;20215;-71
2022/04/22 09:15:23;;;;;;;0.10;0.10;;;11.80;1.00;12.80;88045.00;;;;5013895;28;20208;-71
2022/04/22 09:17:57;;;;;;;0.10;0.10;;;11.90;99.90;12.80;88045.00;;;;5014201;28;20196;-71
2022/04/22 09:20:31;;;;;;;0.10;0.10;;;12.10;99.90;12.80;88045.00;;;;5013694;28;20219;-71
2022/04/22 09:22:59;;;;;;;0.08;0.08;;;12.30;1.00;12.80;88045.00;;;;5014085;28;20192;-71
2022/04/22 09:25:28;;;;;;;0.10;0.10;;;12.40;1.00;12.80;88045.00;;;;5013642;28;20219;-71
2022/04/22 09:28:08;;;;;;;0.10;0.10;;;12.70;99.90;12.80;88045.00;;;;5013658;28;20191;-71
2022/04/22 09:30:39;;;;;;;0.10;0.10;;;12.90;1.00;12.80;88045.00;;;;5013811;28;20203;-71
2022/04/22 09:33:09;;;;;;;0.10;0.10;;;13.00;1.00;12.80;88045.00;;;;5013907;28;20219;-71
2022/04/22 09:43:58;;;;;;;0.10;0.10;;;13.70;1.00;12.80;88045.00;;;;5013714;28;20242;-71
2022/04/22 09:46:30;;;;;;;0.10;0.10;;;14.00;1.00;12.80;88045.00;;;;5013156;28;20677;-71
2022/04/22 09:49:00;;;;;;;0.00;0.00;;;14.20;99.90;12.80;88045.00;;;;5013768;28;20278;-71
2022/04/22 09:51:30;;;;;;;0.00;0.00;;;14.30;1.00;12.80;88045.00;;;;5013989;28;20234;-71
2022/04/22 09:54:05;;;;;;;0.10;0.10;;;14.40;99.90;12.80;88045.00;;;;5013412;28;20827;-71
2022/04/22 09:56:33;;;;;;;0.10;0.10;;;14.50;1.00;12.80;88045.00;;;;5013211;28;20203;-72
2022/04/22 09:59:23;;;;;;;0.00;0.00;;;14.60;1.00;12.80;88045.00;;;;5013341;28;20211;-71
2022/04/22 10:01:53;;;;;;;0.10;0.10;;;14.70;1.00;12.80;88045.00;;;;5013439;28;20196;-71
2022/04/22 10:04:32;;;;;;;0.10;0.10;;;14.80;1.00;12.80;88045.00;;;;5013383;28;20234;-72
2022/04/22 10:07:02;;;;;;;0.10;0.10;;;14.70;1.00;12.80;88045.00;;;;5013477;28;20188;-72
2022/04/22 10:09:33;;;;;;;0.10;0.10;;;14.60;1.00;12.80;88045.00;;;;5013934;28;20199;-71
2022/04/22 10:12:06;;;;;;;0.10;0.10;;;14.50;99.90;12.80;88045.00;;;;5015733;28;20209;-71
2022/04/22 10:14:38;;;;;;;0.03;0.03;;;14.70;74.30;12.80;88045.00;;;;5021858;28;20220;-71
2022/04/22 10:17:07;;;;;;;0.00;0.00;;;14.80;99.90;12.80;88045.00;;;;5024034;28;20219;-71
2022/04/22 10:19:37;;;;;;;0.00;0.00;;;15.00;99.90;12.80;88045.00;;;;5032632;28;20242;-71
2022/04/22 10:22:07;;;;;;;0.00;0.00;;;15.20;17.90;12.80;88045.00;;;;5015292;28;20286;-71
2022/04/22 10:24:36;;;;;;;0.10;0.10;;;15.30;1.00;12.80;88045.00;;;;5012510;28;20261;-71
2022/04/22 10:27:08;;;;;;;0.00;0.00;;;15.40;90.10;12.80;88045.00;;;;5012995;28;20187;-71
2022/04/22 10:29:40;;;;;;;0.00;0.00;;;15.40;1.00;12.80;88045.00;;;;5012830;28;20203;-71
2022/04/22 10:32:13;;;;;;;0.00;0.00;;;15.50;1.00;12.80;88045.00;;;;5012973;28;20191;-71
2022/04/22 10:34:43;;;;;;;0.00;0.00;;;15.40;1.00;12.80;88045.00;;;;5013411;28;20217;-72
2022/04/22 10:37:24;;;;;;;0.00;0.00;;;15.40;1.00;12.80;88045.00;;;;5012338;28;20232;-72
2022/04/22 10:39:54;;;;;;;0.10;0.10;;;15.40;1.00;12.80;88045.00;;;;5018641;28;20222;-72
2022/04/22 10:42:31;;;;;;;0.00;0.00;;;15.40;1.00;12.80;88045.00;;;;5015056;28;20571;-71
2022/04/22 10:47:53;;;;;;;0.05;0.05;;;15.30;99.90;12.80;88045.00;;;;5024652;28;20674;-71
2022/04/22 10:50:31;;;;;;;0.10;0.10;;;15.30;1.00;12.80;88045.00;;;;5018367;28;20674;-71
2022/04/22 10:53:03;;;;;;;0.00;0.00;;;15.30;1.00;12.80;88045.00;;;;5017944;28;20214;-71
2022/04/22 10:55:36;;;;;;;0.00;0.00;;;15.30;1.00;12.80;88045.00;;;;5015329;28;20219;-71
2022/04/22 10:58:26;;;;;;;0.00;0.00;;;15.30;1.00;12.80;88045.00;;;;5017576;28;20653;-71
2022/04/22 11:00:58;;;;;;;0.00;0.00;;;15.30;1.00;12.80;88045.00;;;;5015767;28;20227;-72
2022/04/22 11:03:34;;;;;;;0.00;0.00;;;15.30;1.00;12.80;88045.00;;;;5016036;28;20277;-71
2022/04/22 11:06:06;;;;;;;0.00;0.00;;;15.30;1.00;12.80;88045.00;;;;5016456;28;20196;-72
2022/04/22 11:08:38;;;;;;;0.00;0.00;;;15.20;1.00;12.80;88045.00;;;;5014898;28;20192;-71
2022/04/22 11:11:18;;;;;;;0.00;0.00;;;15.20;1.00;12.80;88045.00;;;;5013006;28;20207;-72
2022/04/22 11:13:50;;;;;;;0.00;0.00;;;15.10;1.00;12.80;88045.00;;;;5012279;28;20211;-71
2022/04/22 11:16:29;;;;;;;0.10;0.10;;;15.00;1.00;12.80;88045.00;;;;5012087;28;20206;-72
2022/04/22 11:19:24;;;;;;;0.08;0.08;;;15.00;1.00;12.80;88045.00;;;;5012659;28;20306;-71
2022/04/22 11:21:55;;;;;;;0.10;0.10;;;14.90;1.00;12.80;88045.00;;;;5012957;28;20205;-71
2022/04/22 11:24:26;;;;;;;0.10;0.10;;;14.90;1.00;12.80;88045.00;;;;5012212;28;20731;-72
2022/04/22 11:27:08;;;;;;;0.00;0.00;;;14.90;1.00;12.80;88045.00;;;;5012323;28;20199;-71
2022/04/22 11:29:37;;;;;;;0.00;0.00;;;14.90;99.90;12.80;88045.00;;;;5012464;28;20294;-71
2022/04/22 11:32:17;;;;;;;0.00;0.00;;;14.80;99.90;12.80;88045.00;;;;5015339;28;20187;-72
2022/04/22 11:35:16;;;;;;;0.00;0.00;;;14.80;99.90;12.80;88045.00;;;;5014081;28;20766;-71
2022/04/22 11:37:44;;;;;;;0.00;0.00;;;14.70;99.90;12.80;88045.00;;;;5014310;28;20192;-71
2022/04/22 11:40:20;;;;;;;0.00;0.00;;;14.70;99.90;12.80;88045.00;;;;5012296;28;20215;-73
2022/04/22 11:42:50;;;;;;;0.00;0.00;;;14.70;99.90;12.80;88045.00;;;;5012360;28;20218;-71
2022/04/22 11:45:18;;;;;;;0.00;0.00;;;14.70;99.90;12.80;88045.00;;;;5011639;28;20709;-71
2022/04/22 11:47:46;;;;;;;0.00;0.00;;;14.70;99.90;12.80;88045.00;;;;5011690;28;20188;-71
2022/04/22 11:50:22;;;;;;;0.00;0.00;;;14.70;99.90;12.80;88045.00;;;;5012234;28;20195;-71
2022/04/22 11:52:56;;;;;;;0.00;0.00;;;14.70;99.90;12.80;88045.00;;;;5012721;28;20294;-72
2022/04/22 11:55:25;;;;;;;0.08;0.08;;;14.60;99.90;12.80;88045.00;;;;5013279;28;20254;-71
2022/04/22 11:57:53;;;;;;;0.00;0.00;;;14.60;99.90;12.80;88045.00;;;;5012800;28;20191;-71
2022/04/22 12:05:54;;;;;;;0.00;0.00;;;14.50;99.90;12.80;88045.00;;;;5021260;28;20222;-71
2022/04/22 12:08:22;;;;;;;0.00;0.00;;;14.50;99.90;12.80;88045.00;;;;5011717;28;20192;-71
2022/04/22 12:10:51;;;;;;;0.05;0.05;;;14.50;99.90;12.80;88045.00;;;;5011685;28;20196;-71
2022/04/22 12:13:19;;;;;;;0.00;0.00;;;14.50;99.90;12.80;88045.00;;;;5011238;28;20211;-71
2022/04/22 12:15:49;;;;;;;0.00;0.00;;;14.50;99.90;12.80;88045.00;;;;5011404;28;20665;-71